sensor_id;sensor_type;location;lat;lon;timestamp;pressure;altitude;pressure_sealevel;temperature;humidity
54512;BME280;40419;47.438;19.026;2023-05-17T00:01:49;98973.13;;;13.92;100.00
54512;BME280;40419;47.438;19.026;2023-05-17T00:04:15;98985.53;;;13.99;100.00
54512;BME280;40419;47.438;19.026;2023-05-17T00:06:43;98975.78;;;13.87;100.00
54512;BME280;40419;47.438;19.026;2023-05-17T00:09:11;98975.94;;;13.80;100.00
54512;BME280;40419;47.438;19.026;2023-05-17T00:11:39;98981.13;;;13.81;100.00
54512;BME280;40419;47.438;19.026;2023-05-17T00:14:07;98989.38;;;13.87;100.00
54512;BME280;40419;47.438;19.026;2023-05-17T00:16:33;98984.44;;;13.83;100.00
54512;BME280;40419;47.438;19.026;2023-05-17T00:19:01;98990.84;;;13.77;100.00
54512;BME280;40419;47.438;19.026;2023-05-17T00:21:26;98994.38;;;13.78;100.00
54512;BME280;40419;47.438;19.026;2023-05-17T00:23:52;98985.47;;;13.82;100.00
54512;BME280;40419;47.438;19.026;2023-05-17T00:26:19;98985.72;;;13.81;100.00
54512;BME280;40419;47.438;19.026;2023-05-17T00:28:48;98983.25;;;13.79;100.00
54512;BME280;40419;47.438;19.026;2023-05-17T00:31:14;98986.22;;;13.78;100.00
54512;BME280;40419;47.438;19.026;2023-05-17T00:33:39;98990.84;;;13.77;100.00
54512;BME280;40419;47.438;19.026;2023-05-17T00:36:07;98980.94;;;13.71;100.00
54512;BME280;40419;47.438;19.026;2023-05-17T00:38:35;98971.56;;;13.79;100.00
54512;BME280;40419;47.438;19.026;2023-05-17T00:41:01;98977.13;;;13.72;100.00
54512;BME280;40419;47.438;19.026;2023-05-17T00:43:27;98969.72;;;13.68;100.00
54512;BME280;40419;47.438;19.026;2023-05-17T00:45:52;98969.56;;;13.74;100.00
54512;BME280;40419;47.438;19.026;2023-05-17T00:48:20;98978.81;;;13.73;100.00
54512;BME280;40419;47.438;19.026;2023-05-17T00:50:51;98980.94;;;13.71;100.00
54512;BME280;40419;47.438;19.026;2023-05-17T00:53:21;98984.97;;;13.69;100.00
54512;BME280;40419;47.438;19.026;2023-05-17T00:55:48;98976.00;;;13.68;100.00
54512;BME280;40419;47.438;19.026;2023-05-17T00:58:16;98993.13;;;13.69;100.00
54512;BME280;40419;47.438;19.026;2023-05-17T01:00:45;98990.41;;;13.69;100.00
54512;BME280;40419;47.438;19.026;2023-05-17T01:03:16;98991.00;;;13.71;100.00
54512;BME280;40419;47.438;19.026;2023-05-17T01:05:44;98988.09;;;13.60;100.00
54512;BME280;40419;47.438;19.026;2023-05-17T01:08:14;98996.84;;;13.62;100.00
54512;BME280;40419;47.438;19.026;2023-05-17T01:10:55;98995.56;;;13.82;100.00
54512;BME280;40419;47.438;19.026;2023-05-17T01:13:34;98997.59;;;13.75;100.00
54512;BME280;40419;47.438;19.026;2023-05-17T01:16:24;99003.44;;;13.67;100.00
54512;BME280;40419;47.438;19.026;2023-05-17T01:19:38;99004.34;;;13.72;100.00
54512;BME280;40419;47.438;19.026;2023-05-17T01:22:15;98995.38;;;13.72;100.00
54512;BME280;40419;47.438;19.026;2023-05-17T01:24:52;98990.50;;;13.74;100.00
54512;BME280;40419;47.438;19.026;2023-05-17T01:27:29;98989.19;;;13.76;100.00
54512;BME280;40419;47.438;19.026;2023-05-17T01:29:59;98995.72;;;13.75;100.00
54512;BME280;40419;47.438;19.026;2023-05-17T01:32:26;98979.72;;;13.79;100.00
54512;BME280;40419;47.438;19.026;2023-05-17T01:34:52;98972.88;;;13.76;100.00
54512;BME280;40419;47.438;19.026;2023-05-17T01:37:20;98982.53;;;13.84;100.00
54512;BME280;40419;47.438;19.026;2023-05-17T01:39:46;98964.88;;;13.87;100.00
54512;BME280;40419;47.438;19.026;2023-05-17T01:42:22;98950.47;;;13.86;100.00
54512;BME280;40419;47.438;19.026;2023-05-17T01:50:02;98935.78;;;13.70;100.00
54512;BME280;40419;47.438;19.026;2023-05-17T01:57:34;98967.66;;;13.58;100.00
54512;BME280;40419;47.438;19.026;2023-05-17T02:00:06;98967.41;;;13.59;100.00
54512;BME280;40419;47.438;19.026;2023-05-17T02:02:43;98962.69;;;13.55;100.00
54512;BME280;40419;47.438;19.026;2023-05-17T02:05:11;98966.25;;;13.55;100.00
54512;BME280;40419;47.438;19.026;2023-05-17T02:07:38;98963.53;;;13.55;100.00
54512;BME280;40419;47.438;19.026;2023-05-17T02:10:07;98974.16;;;13.57;100.00
54512;BME280;40419;47.438;19.026;2023-05-17T02:12:35;98981.97;;;13.53;100.00
54512;BME280;40419;47.438;19.026;2023-05-17T02:15:03;98975.72;;;13.53;100.00
54512;BME280;40419;47.438;19.026;2023-05-17T02:17:28;98971.69;;;13.55;100.00
54512;BME280;40419;47.438;19.026;2023-05-17T02:19:56;98980.19;;;13.59;100.00
54512;BME280;40419;47.438;19.026;2023-05-17T02:22:21;98981.94;;;13.65;100.00
54512;BME280;40419;47.438;19.026;2023-05-17T02:24:47;98981.94;;;13.65;100.00
54512;BME280;40419;47.438;19.026;2023-05-17T02:27:15;98984.41;;;13.67;100.00
54512;BME280;40419;47.438;19.026;2023-05-17T02:29:43;98992.63;;;13.55;100.00
54512;BME280;40419;47.438;19.026;2023-05-17T02:32:11;98991.81;;;13.54;100.00
54512;BME280;40419;47.438;19.026;2023-05-17T02:34:45;98992.44;;;13.61;100.00
54512;BME280;40419;47.438;19.026;2023-05-17T02:37:15;99004.34;;;13.72;100.00
54512;BME280;40419;47.438;19.026;2023-05-17T02:39:46;99006.78;;;13.57;100.00
54512;BME280;40419;47.438;19.026;2023-05-17T02:42:14;99019.81;;;13.55;100.00
54512;BME280;40419;47.438;19.026;2023-05-17T02:44:39;99011.97;;;13.58;100.00
54512;BME280;40419;47.438;19.026;2023-05-17T02:47:07;99012.72;;;13.54;100.00
54512;BME280;40419;47.438;19.026;2023-05-17T02:49:35;99016.03;;;13.56;100.00
54512;BME280;40419;47.438;19.026;2023-05-17T02:52:04;99009.13;;;13.65;100.00
54512;BME280;40419;47.438;19.026;2023-05-17T02:54:34;99002.84;;;13.64;100.00
54512;BME280;40419;47.438;19.026;2023-05-17T02:57:00;99001.94;;;13.59;100.00
54512;BME280;40419;47.438;19.026;2023-05-17T02:59:25;99009.25;;;13.58;100.00
54512;BME280;40419;47.438;19.026;2023-05-17T03:01:53;99000.84;;;13.60;100.00
54512;BME280;40419;47.438;19.026;2023-05-17T03:04:19;99005.47;;;13.59;100.00
54512;BME280;40419;47.438;19.026;2023-05-17T03:06:45;99009.88;;;13.60;100.00
54512;BME280;40419;47.438;19.026;2023-05-17T03:09:17;99000.72;;;13.67;100.00
54512;BME280;40419;47.438;19.026;2023-05-17T03:11:48;99011.13;;;13.70;100.00
54512;BME280;40419;47.438;19.026;2023-05-17T03:14:19;99008.66;;;13.68;100.00
54512;BME280;40419;47.438;19.026;2023-05-17T03:16:47;99012.59;;;13.60;100.00
54512;BME280;40419;47.438;19.026;2023-05-17T03:19:16;99019.31;;;13.58;100.00
54512;BME280;40419;47.438;19.026;2023-05-17T03:21:45;99012.66;;;13.65;100.00
54512;BME280;40419;47.438;19.026;2023-05-17T03:24:16;99021.06;;;13.64;100.00
54512;BME280;40419;47.438;19.026;2023-05-17T03:26:42;99011.13;;;13.70;100.00
54512;BME280;40419;47.438;19.026;2023-05-17T03:29:17;99014.41;;;13.72;100.00
54512;BME280;40419;47.438;19.026;2023-05-17T03:31:49;99014.16;;;13.73;100.00
54512;BME280;40419;47.438;19.026;2023-05-17T03:34:17;99019.34;;;13.75;100.00
54512;BME280;40419;47.438;19.026;2023-05-17T03:36:47;99028.38;;;13.75;100.00
54512;BME280;40419;47.438;19.026;2023-05-17T03:39:15;99034.19;;;13.67;100.00
54512;BME280;40419;47.438;19.026;2023-05-17T03:41:43;99027.94;;;13.67;100.00
54512;BME280;40419;47.438;19.026;2023-05-17T03:44:16;99036.34;;;13.65;100.00
54512;BME280;40419;47.438;19.026;2023-05-17T03:46:41;99048.34;;;13.69;100.00
54512;BME280;40419;47.438;19.026;2023-05-17T03:49:12;99054.88;;;13.68;100.00
54512;BME280;40419;47.438;19.026;2023-05-17T03:51:42;99058.66;;;13.67;100.00
54512;BME280;40419;47.438;19.026;2023-05-17T03:54:11;99069.53;;;13.67;100.00
54512;BME280;40419;47.438;19.026;2023-05-17T03:56:37;99075.22;;;13.65;100.00
54512;BME280;40419;47.438;19.026;2023-05-17T03:59:02;99077.22;;;13.70;100.00
54512;BME280;40419;47.438;19.026;2023-05-17T04:01:30;99077.34;;;13.75;100.00
54512;BME280;40419;47.438;19.026;2023-05-17T04:03:58;99074.69;;;13.80;100.00
54512;BME280;40419;47.438;19.026;2023-05-17T04:06:28;99069.81;;;13.82;100.00
54512;BME280;40419;47.438;19.026;2023-05-17T04:08:54;99072.06;;;13.86;100.00
54512;BME280;40419;47.438;19.026;2023-05-17T04:11:26;99059.53;;;13.85;100.00
54512;BME280;40419;47.438;19.026;2023-05-17T04:13:53;99066.78;;;13.79;100.00
54512;BME280;40419;47.438;19.026;2023-05-17T04:16:22;99069.19;;;13.75;100.00
54512;BME280;40419;47.438;19.026;2023-05-17T04:18:48;99073.75;;;13.75;100.00
54512;BME280;40419;47.438;19.026;2023-05-17T04:21:17;99075.69;;;13.74;100.00
54512;BME280;40419;47.438;19.026;2023-05-17T04:23:43;99078.53;;;13.68;100.00
54512;BME280;40419;47.438;19.026;2023-05-17T04:26:10;99088.34;;;13.69;100.00
54512;BME280;40419;47.438;19.026;2023-05-17T04:28:37;99088.78;;;13.77;100.00
54512;BME280;40419;47.438;19.026;2023-05-17T04:31:06;99087.81;;;13.83;100.00
54512;BME280;40419;47.438;19.026;2023-05-17T04:33:33;99090.03;;;13.87;100.00
54512;BME280;40419;47.438;19.026;2023-05-17T04:35:58;99103.16;;;13.90;100.00
54512;BME280;40419;47.438;19.026;2023-05-17T04:38:28;99111.66;;;13.93;100.00
54512;BME280;40419;47.438;19.026;2023-05-17T04:41:03;99126.69;;;13.96;100.00
54512;BME280;40419;47.438;19.026;2023-05-17T04:43:34;99134.28;;;13.94;100.00
54512;BME280;40419;47.438;19.026;2023-05-17T04:46:03;99137.00;;;13.94;100.00
54512;BME280;40419;47.438;19.026;2023-05-17T04:48:33;99136.03;;;14.00;100.00
54512;BME280;40419;47.438;19.026;2023-05-17T04:51:02;99142.97;;;14.08;100.00
54512;BME280;40419;47.438;19.026;2023-05-17T04:53:33;99142.47;;;14.11;100.00
54512;BME280;40419;47.438;19.026;2023-05-17T04:56:05;99135.81;;;14.18;100.00
54512;BME280;40419;47.438;19.026;2023-05-17T04:58:31;99146.69;;;14.18;100.00
54512;BME280;40419;47.438;19.026;2023-05-17T05:01:00;99141.94;;;14.26;100.00
54512;BME280;40419;47.438;19.026;2023-05-17T05:03:29;99141.88;;;14.38;100.00
54512;BME280;40419;47.438;19.026;2023-05-17T05:05:54;99138.41;;;14.42;100.00
54512;BME280;40419;47.438;19.026;2023-05-17T05:08:20;99139.66;;;14.51;100.00
54512;BME280;40419;47.438;19.026;2023-05-17T05:10:48;99133.41;;;14.51;100.00
54512;BME280;40419;47.438;19.026;2023-05-17T05:13:21;99139.09;;;14.49;100.00
54512;BME280;40419;47.438;19.026;2023-05-17T05:15:50;99136.25;;;14.44;100.00
54512;BME280;40419;47.438;19.026;2023-05-17T05:18:16;99132.47;;;14.45;100.00
54512;BME280;40419;47.438;19.026;2023-05-17T05:20:42;99129.84;;;14.50;100.00
54512;BME280;40419;47.438;19.026;2023-05-17T05:23:11;99141.31;;;14.52;100.00
54512;BME280;40419;47.438;19.026;2023-05-17T05:25:37;99144.22;;;14.63;100.00
54512;BME280;40419;47.438;19.026;2023-05-17T05:28:05;99152.56;;;14.73;100.00
54512;BME280;40419;47.438;19.026;2023-05-17T05:30:31;99154.47;;;14.73;100.00
54512;BME280;40419;47.438;19.026;2023-05-17T05:33:00;99152.19;;;14.81;100.00
54512;BME280;40419;47.438;19.026;2023-05-17T05:35:28;99143.91;;;14.76;100.00
54512;BME280;40419;47.438;19.026;2023-05-17T05:37:59;99146.88;;;14.75;100.00
54512;BME280;40419;47.438;19.026;2023-05-17T05:40:25;99166.69;;;14.70;100.00
54512;BME280;40419;47.438;19.026;2023-05-17T05:42:53;99157.13;;;14.67;100.00
54512;BME280;40419;47.438;19.026;2023-05-17T05:45:24;99170.00;;;14.72;100.00
54512;BME280;40419;47.438;19.026;2023-05-17T05:47:51;99179.31;;;14.76;100.00
54512;BME280;40419;47.438;19.026;2023-05-17T05:50:17;99172.13;;;14.70;100.00
54512;BME280;40419;47.438;19.026;2023-05-17T05:52:49;99179.75;;;14.68;100.00
54512;BME280;40419;47.438;19.026;2023-05-17T05:55:15;99184.13;;;14.69;100.00
54512;BME280;40419;47.438;19.026;2023-05-17T05:57:43;99185.19;;;14.68;100.00
54512;BME280;40419;47.438;19.026;2023-05-17T06:00:11;99170.97;;;14.66;100.00
54512;BME280;40419;47.438;19.026;2023-05-17T06:02:41;99172.63;;;14.67;100.00
54512;BME280;40419;47.438;19.026;2023-05-17T06:05:10;99164.38;;;14.62;100.00
54512;BME280;40419;47.438;19.026;2023-05-17T06:07:38;99168.03;;;14.67;100.00
54512;BME280;40419;47.438;19.026;2023-05-17T06:10:04;99171.22;;;14.64;100.00
54512;BME280;40419;47.438;19.026;2023-05-17T06:12:29;99166.78;;;14.75;100.00
54512;BME280;40419;47.438;19.026;2023-05-17T06:14:59;99171.09;;;14.71;100.00
54512;BME280;40419;47.438;19.026;2023-05-17T06:17:25;99179.75;;;14.68;100.00
54512;BME280;40419;47.438;19.026;2023-05-17T06:19:53;99173.00;;;14.70;100.00
54512;BME280;40419;47.438;19.026;2023-05-17T06:22:21;99168.34;;;14.71;100.00
54512;BME280;40419;47.438;19.026;2023-05-17T06:24:49;99169.53;;;14.75;100.00
54512;BME280;40419;47.438;19.026;2023-05-17T06:27:19;99179.56;;;14.75;100.00
54512;BME280;40419;47.438;19.026;2023-05-17T06:29:45;99178.75;;;14.74;100.00
54512;BME280;40419;47.438;19.026;2023-05-17T06:32:13;99186.75;;;14.81;100.00
54512;BME280;40419;47.438;19.026;2023-05-17T06:34:43;99180.16;;;14.77;100.00
54512;BME280;40419;47.438;19.026;2023-05-17T06:37:13;99190.22;;;14.76;100.00
54512;BME280;40419;47.438;19.026;2023-05-17T06:39:42;99190.09;;;14.83;100.00
54512;BME280;40419;47.438;19.026;2023-05-17T06:42:09;99193.06;;;14.81;100.00
54512;BME280;40419;47.438;19.026;2023-05-17T06:44:35;99200.06;;;14.77;100.00
54512;BME280;40419;47.438;19.026;2023-05-17T06:47:00;99203.84;;;14.76;100.00
54512;BME280;40419;47.438;19.026;2023-05-17T06:49:28;99208.16;;;14.89;100.00
54512;BME280;40419;47.438;19.026;2023-05-17T06:51:54;99203.94;;;14.98;100.00
54512;BME280;40419;47.438;19.026;2023-05-17T06:54:23;99198.41;;;15.10;100.00
54512;BME280;40419;47.438;19.026;2023-05-17T06:56:49;99208.16;;;15.23;100.00
54512;BME280;40419;47.438;19.026;2023-05-17T06:59:17;99210.72;;;15.30;100.00
54512;BME280;40419;47.438;19.026;2023-05-17T07:01:43;99210.03;;;15.39;100.00
54512;BME280;40419;47.438;19.026;2023-05-17T07:04:08;99215.56;;;15.28;100.00
54512;BME280;40419;47.438;19.026;2023-05-17T07:06:34;99212.94;;;15.33;100.00
54512;BME280;40419;47.438;19.026;2023-05-17T07:09:00;99222.44;;;15.30;100.00
54512;BME280;40419;47.438;19.026;2023-05-17T07:11:28;99228.72;;;15.14;100.00
54512;BME280;40419;47.438;19.026;2023-05-17T07:13:58;99231.22;;;15.15;100.00
54512;BME280;40419;47.438;19.026;2023-05-17T07:16:23;99231.88;;;15.22;100.00
54512;BME280;40419;47.438;19.026;2023-05-17T07:18:52;99224.09;;;15.31;100.00
54512;BME280;40419;47.438;19.026;2023-05-17T07:21:17;99211.94;;;15.39;100.00
54512;BME280;40419;47.438;19.026;2023-05-17T07:23:45;99213.22;;;15.53;100.00
54512;BME280;40419;47.438;19.026;2023-05-17T07:26:10;99213.16;;;15.48;100.00
54512;BME280;40419;47.438;19.026;2023-05-17T07:28:38;99224.47;;;15.57;100.00
54512;BME280;40419;47.438;19.026;2023-05-17T07:31:06;99224.63;;;15.50;100.00
54512;BME280;40419;47.438;19.026;2023-05-17T07:33:34;99224.13;;;15.53;100.00
54512;BME280;40419;47.438;19.026;2023-05-17T07:36:05;99229.31;;;15.33;100.00
54512;BME280;40419;47.438;19.026;2023-05-17T07:38:33;99228.63;;;15.42;100.00
54512;BME280;40419;47.438;19.026;2023-05-17T07:41:05;99233.34;;;15.30;100.00
54512;BME280;40419;47.438;19.026;2023-05-17T07:43:36;99235.16;;;15.24;100.00
54512;BME280;40419;47.438;19.026;2023-05-17T07:46:02;99229.16;;;15.22;100.00
54512;BME280;40419;47.438;19.026;2023-05-17T07:48:30;99236.31;;;15.29;100.00
54512;BME280;40419;47.438;19.026;2023-05-17T07:50:58;99236.00;;;15.25;100.00
54512;BME280;40419;47.438;19.026;2023-05-17T07:53:26;99239.56;;;15.26;100.00
54512;BME280;40419;47.438;19.026;2023-05-17T07:55:54;99235.91;;;15.20;100.00
54512;BME280;40419;47.438;19.026;2023-05-17T07:58:24;99240.72;;;15.30;100.00
54512;BME280;40419;47.438;19.026;2023-05-17T08:00:55;99241.53;;;15.30;100.00
54512;BME280;40419;47.438;19.026;2023-05-17T08:03:23;99243.75;;;15.33;100.00
54512;BME280;40419;47.438;19.026;2023-05-17T08:05:52;99246.16;;;15.30;100.00
54512;BME280;40419;47.438;19.026;2023-05-17T08:08:18;99242.34;;;15.31;100.00
54512;BME280;40419;47.438;19.026;2023-05-17T08:10:50;99247.81;;;15.31;100.00
54512;BME280;40419;47.438;19.026;2023-05-17T08:13:18;99252.28;;;15.37;100.00
54512;BME280;40419;47.438;19.026;2023-05-17T08:15:48;99250.63;;;15.36;100.00
54512;BME280;40419;47.438;19.026;2023-05-17T08:18:13;99255.41;;;15.29;100.00
54512;BME280;40419;47.438;19.026;2023-05-17T08:20:39;99257.06;;;15.30;100.00
54512;BME280;40419;47.438;19.026;2023-05-17T08:23:07;99251.34;;;14.97;100.00
54512;BME280;40419;47.438;19.026;2023-05-17T08:25:33;99257.91;;;15.13;100.00
54512;BME280;40419;47.438;19.026;2023-05-17T08:28:03;99251.13;;;15.16;100.00
54512;BME280;40419;47.438;19.026;2023-05-17T08:30:28;99265.34;;;15.18;100.00
54512;BME280;40419;47.438;19.026;2023-05-17T08:32:56;99257.91;;;15.13;100.00
54512;BME280;40419;47.438;19.026;2023-05-17T08:35:24;99265.34;;;15.18;100.00
54512;BME280;40419;47.438;19.026;2023-05-17T08:37:50;99263.28;;;15.25;100.00
54512;BME280;40419;47.438;19.026;2023-05-17T08:40:18;99270.13;;;15.28;100.00
54512;BME280;40419;47.438;19.026;2023-05-17T08:42:45;99271.63;;;15.35;100.00
54512;BME280;40419;47.438;19.026;2023-05-17T08:45:11;99267.50;;;15.33;100.00
54512;BME280;40419;47.438;19.026;2023-05-17T08:47:41;99265.00;;;15.48;100.00
54512;BME280;40419;47.438;19.026;2023-05-17T08:50:10;99261.97;;;15.67;100.00
54512;BME280;40419;47.438;19.026;2023-05-17T08:52:40;99259.06;;;15.90;100.00
54512;BME280;40419;47.438;19.026;2023-05-17T08:55:10;99260.28;;;16.00;100.00
54512;BME280;40419;47.438;19.026;2023-05-17T08:57:38;99256.41;;;16.18;100.00
54512;BME280;40419;47.438;19.026;2023-05-17T09:00:05;99259.69;;;16.20;100.00
54512;BME280;40419;47.438;19.026;2023-05-17T09:02:37;99258.59;;;16.16;100.00
54512;BME280;40419;47.438;19.026;2023-05-17T09:05:09;99256.44;;;16.45;100.00
54512;BME280;40419;47.438;19.026;2023-05-17T09:07:35;99250.47;;;16.48;100.00
54512;BME280;40419;47.438;19.026;2023-05-17T09:10:00;99251.91;;;16.56;100.00
54512;BME280;40419;47.438;19.026;2023-05-17T09:12:32;99247.38;;;16.39;100.00
54512;BME280;40419;47.438;19.026;2023-05-17T09:15:18;99242.91;;;16.82;100.00
54512;BME280;40419;47.438;19.026;2023-05-17T09:17:51;99253.53;;;16.79;100.00
54512;BME280;40419;47.438;19.026;2023-05-17T09:20:26;99260.00;;;16.95;100.00
54512;BME280;40419;47.438;19.026;2023-05-17T09:23:02;99250.66;;;17.23;100.00
54512;BME280;40419;47.438;19.026;2023-05-17T09:25:32;99258.06;;;17.28;100.00
54512;BME280;40419;47.438;19.026;2023-05-17T09:28:05;99264.72;;;17.80;100.00
54512;BME280;40419;47.438;19.026;2023-05-17T09:30:35;99263.47;;;17.55;100.00
54512;BME280;40419;47.438;19.026;2023-05-17T09:33:07;99276.59;;;17.91;100.00
54512;BME280;40419;47.438;19.026;2023-05-17T09:35:35;99283.25;;;17.67;100.00
54512;BME280;40419;47.438;19.026;2023-05-17T09:38:08;99280.59;;;17.40;100.00
54512;BME280;40419;47.438;19.026;2023-05-17T09:40:43;99279.28;;;17.48;100.00
54512;BME280;40419;47.438;19.026;2023-05-17T09:43:12;99293.03;;;17.21;100.00
54512;BME280;40419;47.438;19.026;2023-05-17T09:45:38;99286.81;;;16.98;100.00
54512;BME280;40419;47.438;19.026;2023-05-17T09:48:19;99292.41;;;17.46;100.00
54512;BME280;40419;47.438;19.026;2023-05-17T09:50:48;99301.06;;;17.65;100.00
54512;BME280;40419;47.438;19.026;2023-05-17T09:53:31;99293.38;;;17.67;100.00
54512;BME280;40419;47.438;19.026;2023-05-17T09:56:00;99283.97;;;17.90;100.00
54512;BME280;40419;47.438;19.026;2023-05-17T09:58:27;99285.97;;;18.00;100.00
54512;BME280;40419;47.438;19.026;2023-05-17T10:00:59;99283.06;;;18.32;100.00
54512;BME280;40419;47.438;19.026;2023-05-17T10:03:36;99293.53;;;18.46;100.00
54512;BME280;40419;47.438;19.026;2023-05-17T10:06:05;99292.31;;;18.11;100.00
54512;BME280;40419;47.438;19.026;2023-05-17T10:08:32;99299.06;;;17.93;100.00
54512;BME280;40419;47.438;19.026;2023-05-17T10:11:07;99299.47;;;17.74;100.00
54512;BME280;40419;47.438;19.026;2023-05-17T10:13:41;99307.81;;;17.95;100.00
54512;BME280;40419;47.438;19.026;2023-05-17T10:16:13;99300.13;;;17.54;100.00
54512;BME280;40419;47.438;19.026;2023-05-17T10:18:42;99297.81;;;17.73;100.00
54512;BME280;40419;47.438;19.026;2023-05-17T10:21:13;99312.09;;;17.43;100.00
54512;BME280;40419;47.438;19.026;2023-05-17T10:23:45;99306.44;;;17.54;100.00
54512;BME280;40419;47.438;19.026;2023-05-17T10:26:12;99310.50;;;16.87;100.00
54512;BME280;40419;47.438;19.026;2023-05-17T10:28:43;99310.06;;;16.95;100.00
54512;BME280;40419;47.438;19.026;2023-05-17T10:31:11;99308.94;;;16.96;100.00
54512;BME280;40419;47.438;19.026;2023-05-17T10:33:40;99311.25;;;17.10;100.00
54512;BME280;40419;47.438;19.026;2023-05-17T10:36:16;99310.97;;;16.84;100.00
54512;BME280;40419;47.438;19.026;2023-05-17T10:38:41;99322.88;;;16.95;100.00
54512;BME280;40419;47.438;19.026;2023-05-17T10:41:11;99321.81;;;16.96;100.00
54512;BME280;40419;47.438;19.026;2023-05-17T10:43:41;99316.03;;;16.70;100.00
54512;BME280;40419;47.438;19.026;2023-05-17T10:46:17;99320.66;;;17.19;100.00
54512;BME280;40419;47.438;19.026;2023-05-17T10:48:52;99331.16;;;16.78;100.00
54512;BME280;40419;47.438;19.026;2023-05-17T10:51:34;99333.13;;;16.60;100.00
54512;BME280;40419;47.438;19.026;2023-05-17T10:56:53;99320.78;;;17.02;100.00
54512;BME280;40419;47.438;19.026;2023-05-17T10:59:24;99327.22;;;16.69;100.00
54512;BME280;40419;47.438;19.026;2023-05-17T11:09:44;99345.63;;;17.00;100.00
54512;BME280;40419;47.438;19.026;2023-05-17T11:12:14;99351.00;;;16.90;100.00
54512;BME280;40419;47.438;19.026;2023-05-17T11:22:24;99351.19;;;16.83;100.00
54512;BME280;40419;47.438;19.026;2023-05-17T11:24:52;99343.41;;;16.97;100.00
54512;BME280;40419;47.438;19.026;2023-05-17T11:27:21;99341.97;;;16.90;100.00
54512;BME280;40419;47.438;19.026;2023-05-17T11:29:55;99362.00;;;16.73;100.00
54512;BME280;40419;47.438;19.026;2023-05-17T11:32:27;99368.03;;;16.75;100.00
54512;BME280;40419;47.438;19.026;2023-05-17T11:34:56;99368.53;;;16.94;100.00
54512;BME280;40419;47.438;19.026;2023-05-17T11:37:28;99378.53;;;16.83;100.00
54512;BME280;40419;47.438;19.026;2023-05-17T11:42:26;99372.66;;;16.75;100.00
54512;BME280;40419;47.438;19.026;2023-05-17T11:44:55;99376.59;;;16.62;100.00
54512;BME280;40419;47.438;19.026;2023-05-17T11:47:22;99372.75;;;16.58;100.00
54512;BME280;40419;47.438;19.026;2023-05-17T11:49:50;99372.41;;;16.54;100.00
54512;BME280;40419;47.438;19.026;2023-05-17T11:52:17;99377.97;;;16.59;100.00
54512;BME280;40419;47.438;19.026;2023-05-17T11:54:44;99384.81;;;16.84;100.00
54512;BME280;40419;47.438;19.026;2023-05-17T11:57:12;99376.75;;;16.94;100.00
54512;BME280;40419;47.438;19.026;2023-05-17T11:59:43;99375.06;;;16.71;100.00
54512;BME280;40419;47.438;19.026;2023-05-17T12:02:28;99374.88;;;16.78;100.00
54512;BME280;40419;47.438;19.026;2023-05-17T12:04:54;99377.63;;;16.78;100.00
54512;BME280;40419;47.438;19.026;2023-05-17T12:07:22;99377.94;;;16.81;100.00
54512;BME280;40419;47.438;19.026;2023-05-17T12:09:48;99376.94;;;16.88;100.00
54512;BME280;40419;47.438;19.026;2023-05-17T12:12:17;99380.31;;;16.95;100.00
54512;BME280;40419;47.438;19.026;2023-05-17T12:14:51;99389.44;;;16.61;100.00
54512;BME280;40419;47.438;19.026;2023-05-17T12:17:29;99388.72;;;16.71;100.00
54512;BME280;40419;47.438;19.026;2023-05-17T12:20:05;99387.22;;;16.80;100.00
54512;BME280;40419;47.438;19.026;2023-05-17T12:22:33;99381.56;;;17.09;100.00
54512;BME280;40419;47.438;19.026;2023-05-17T12:25:01;99387.34;;;16.91;100.00
54512;BME280;40419;47.438;19.026;2023-05-17T12:27:30;99380.53;;;17.15;100.00
54512;BME280;40419;47.438;19.026;2023-05-17T12:29:55;99378.28;;;17.40;100.00
54512;BME280;40419;47.438;19.026;2023-05-17T12:32:21;99393.19;;;16.99;100.00
54512;BME280;40419;47.438;19.026;2023-05-17T12:34:52;99393.56;;;16.86;100.00
54512;BME280;40419;47.438;19.026;2023-05-17T12:37:23;99395.75;;;17.06;100.00
54512;BME280;40419;47.438;19.026;2023-05-17T12:39:51;99386.97;;;16.60;100.00
54512;BME280;40419;47.438;19.026;2023-05-17T12:42:20;99399.81;;;16.59;100.00
54512;BME280;40419;47.438;19.026;2023-05-17T12:44:46;99411.22;;;16.34;100.00
54512;BME280;40419;47.438;19.026;2023-05-17T12:47:13;99401.19;;;16.40;100.00
54512;BME280;40419;47.438;19.026;2023-05-17T12:49:54;99394.28;;;16.54;100.00
54512;BME280;40419;47.438;19.026;2023-05-17T12:52:19;99391.16;;;16.68;100.00
54512;BME280;40419;47.438;19.026;2023-05-17T12:54:52;99395.09;;;16.77;100.00
54512;BME280;40419;47.438;19.026;2023-05-17T12:57:18;99398.66;;;16.55;100.00
54512;BME280;40419;47.438;19.026;2023-05-17T12:59:48;99401.19;;;16.84;100.00
54512;BME280;40419;47.438;19.026;2023-05-17T13:02:14;99405.78;;;16.78;100.00
54512;BME280;40419;47.438;19.026;2023-05-17T13:04:48;99416.19;;;16.81;100.00
54512;BME280;40419;47.438;19.026;2023-05-17T13:07:23;99410.75;;;17.04;100.00
54512;BME280;40419;47.438;19.026;2023-05-17T13:09:53;99405.00;;;17.27;100.00
54512;BME280;40419;47.438;19.026;2023-05-17T13:12:24;99415.28;;;17.42;100.00
54512;BME280;40419;47.438;19.026;2023-05-17T13:14:51;99414.28;;;17.26;100.00
54512;BME280;40419;47.438;19.026;2023-05-17T13:17:33;99416.28;;;17.09;100.00
54512;BME280;40419;47.438;19.026;2023-05-17T13:20:06;99413.88;;;17.12;100.00
54512;BME280;40419;47.438;19.026;2023-05-17T13:22:39;99410.84;;;16.70;100.00